createdAt,value
2018-01-12T00:01:27.098Z,92.83
2018-01-12T00:03:54.740Z,93.02
2018-01-12T00:06:22.335Z,93.03
2018-01-12T00:08:49.901Z,93.02
2018-01-12T00:11:17.443Z,92.78
2018-01-12T00:13:44.981Z,92.91
2018-01-12T00:16:12.538Z,92.82
2018-01-12T00:18:40.103Z,92.74
2018-01-12T00:21:07.663Z,92.66
2018-01-12T00:23:35.186Z,93.01
2018-01-12T00:26:02.718Z,92.98
2018-01-12T00:28:30.360Z,92.66
2018-01-12T00:30:57.899Z,92.51
2018-01-12T00:33:25.430Z,93.09
2018-01-12T00:35:52.961Z,93.03
2018-01-12T00:38:20.489Z,92.95
2018-01-12T00:40:48.004Z,93.22
2018-01-12T00:43:15.541Z,93.11
2018-01-12T00:45:43.088Z,92.91
2018-01-12T00:48:10.613Z,93.27
2018-01-12T00:50:38.133Z,93.36
2018-01-12T00:53:05.662Z,92.94
2018-01-12T00:55:33.186Z,93.06
2018-01-12T00:58:00.719Z,93.05
2018-01-12T01:00:28.246Z,93.01
2018-01-12T01:02:55.776Z,93.23
2018-01-12T01:05:23.300Z,93.07
2018-01-12T01:07:50.885Z,92.99
2018-01-12T01:10:18.415Z,92.89
2018-01-12T01:12:45.943Z,93.18
2018-01-12T01:15:13.556Z,92.95
2018-01-12T01:17:41.080Z,92.94
2018-01-12T01:20:08.620Z,92.83
2018-01-12T01:22:36.148Z,92.96
2018-01-12T01:25:03.672Z,92.84
2018-01-12T01:27:31.201Z,93.12
2018-01-12T01:29:58.726Z,92.95
2018-01-12T01:32:26.246Z,93.09
2018-01-12T01:34:53.809Z,93.15
2018-01-12T01:37:21.333Z,93.05
2018-01-12T01:39:48.862Z,93.08
2018-01-12T01:42:16.381Z,93.29
2018-01-12T01:44:43.909Z,93.16
2018-01-12T01:47:11.435Z,93.25
2018-01-12T01:49:38.962Z,92.96
2018-01-12T01:52:06.513Z,93.43
2018-01-12T01:54:34.119Z,93.31
2018-01-12T01:57:01.645Z,93.13
2018-01-12T01:59:29.181Z,92.96
2018-01-12T02:01:56.715Z,92.97
2018-01-12T02:04:24.348Z,92.67
2018-01-12T02:06:51.873Z,92.50
2018-01-12T02:09:19.417Z,92.68
2018-01-12T02:11:46.968Z,92.68
2018-01-12T02:14:14.501Z,92.76
2018-01-12T02:16:42.026Z,92.57
2018-01-12T02:19:09.553Z,92.43
2018-01-12T02:21:37.145Z,92.66
2018-01-12T02:24:04.737Z,92.49
2018-01-12T02:26:32.265Z,92.61
2018-01-12T02:28:59.790Z,92.84
2018-01-12T02:31:27.412Z,92.70
2018-01-12T02:33:54.937Z,92.67
2018-01-12T02:36:22.469Z,92.80
2018-01-12T02:38:49.996Z,92.91
2018-01-12T02:41:17.522Z,92.66
2018-01-12T02:43:45.114Z,92.81
2018-01-12T02:46:12.635Z,92.80
2018-01-12T02:48:40.237Z,92.77
2018-01-12T02:51:07.762Z,92.76
2018-01-12T02:53:35.322Z,92.80
2018-01-12T02:56:02.917Z,92.85
2018-01-12T02:58:30.443Z,92.73
2018-01-12T03:00:57.972Z,92.61
2018-01-12T03:03:25.591Z,92.55
2018-01-12T03:05:53.121Z,92.64
2018-01-12T03:08:20.654Z,92.61
2018-01-12T03:10:48.178Z,92.67
2018-01-12T03:13:15.706Z,92.57
2018-01-12T03:15:43.234Z,92.55
2018-01-12T03:18:10.784Z,92.48
2018-01-12T03:20:38.306Z,92.73
2018-01-12T03:23:05.831Z,92.80
2018-01-12T03:25:33.358Z,92.92
2018-01-12T03:28:00.990Z,92.78
2018-01-12T03:30:28.518Z,92.90
2018-01-12T03:32:56.110Z,92.88
2018-01-12T03:35:23.672Z,92.86
2018-01-12T03:37:51.197Z,93.01
2018-01-12T03:40:18.777Z,93.26
2018-01-12T03:42:46.351Z,93.18
2018-01-12T03:45:13.900Z,92.93
2018-01-12T03:47:41.460Z,92.88
2018-01-12T03:50:08.990Z,93.21
2018-01-12T03:52:36.518Z,93.16
2018-01-12T03:55:04.051Z,93.22
2018-01-12T03:57:31.573Z,93.08
2018-01-12T03:59:59.162Z,93.05
2018-01-12T04:02:26.729Z,93.19
2018-01-12T04:04:54.257Z,93.14
2018-01-12T04:07:21.806Z,93.03
2018-01-12T04:09:49.338Z,92.91
2018-01-12T04:12:16.868Z,93.40
2018-01-12T04:14:44.397Z,93.22
2018-01-12T04:17:11.919Z,93.65
2018-01-12T04:19:39.448Z,93.65
2018-01-12T04:22:06.978Z,93.46
2018-01-12T04:24:34.511Z,93.43
2018-01-12T04:27:02.124Z,93.80
2018-01-12T04:29:29.684Z,94.17
2018-01-12T04:31:57.212Z,94.11
2018-01-12T04:34:24.801Z,94.42
2018-01-12T04:36:52.322Z,94.51
2018-01-12T04:39:19.854Z,94.38
2018-01-12T04:41:47.383Z,94.70
2018-01-12T04:44:14.918Z,94.57
2018-01-12T04:46:42.442Z,94.42
2018-01-12T04:49:09.970Z,94.50
2018-01-12T04:51:37.623Z,94.52
2018-01-12T04:54:05.152Z,94.31
2018-01-12T04:56:32.738Z,94.57
2018-01-12T04:59:01.253Z,94.32
2018-01-12T05:01:28.786Z,94.74
2018-01-12T05:03:56.301Z,94.51
2018-01-12T05:06:23.834Z,94.63
2018-01-12T05:08:51.362Z,94.60
2018-01-12T05:11:18.896Z,94.45
2018-01-12T05:13:46.439Z,94.63
2018-01-12T05:16:13.970Z,94.69
2018-01-12T05:18:41.506Z,94.64
2018-01-12T05:21:09.026Z,94.51
2018-01-12T05:23:36.544Z,94.62
2018-01-12T05:26:04.065Z,94.91
2018-01-12T05:28:31.589Z,94.59
2018-01-12T05:30:59.121Z,94.48
2018-01-12T05:33:26.657Z,94.70
2018-01-12T05:35:54.186Z,94.57
2018-01-12T05:38:21.776Z,94.62
2018-01-12T05:40:49.305Z,94.43
2018-01-12T05:43:16.867Z,94.43
2018-01-12T05:45:44.425Z,94.49
2018-01-12T05:48:11.951Z,94.60
2018-01-12T05:50:39.478Z,94.70
2018-01-12T05:53:07.033Z,94.62
2018-01-12T05:55:34.562Z,94.37
2018-01-12T05:58:02.090Z,94.52
2018-01-12T06:00:29.711Z,94.47
2018-01-12T06:03:08.940Z,94.41
2018-01-12T06:05:48.382Z,94.64
2018-01-12T06:08:15.913Z,94.56
2018-01-12T06:10:43.437Z,94.55
2018-01-12T06:13:10.967Z,94.58
2018-01-12T06:15:38.520Z,94.53
2018-01-12T06:18:06.045Z,94.63
2018-01-12T06:20:33.574Z,94.32
2018-01-12T06:23:01.088Z,94.41
2018-01-12T06:25:28.606Z,94.24
2018-01-12T06:27:56.136Z,94.11
2018-01-12T06:30:23.656Z,94.21
2018-01-12T06:32:51.179Z,94.23
2018-01-12T06:35:18.697Z,94.28
2018-01-12T06:37:46.215Z,94.04
2018-01-12T06:40:13.770Z,93.90
2018-01-12T06:42:41.301Z,94.09
2018-01-12T06:45:08.831Z,94.14
2018-01-12T06:47:36.368Z,94.28
2018-01-12T06:50:03.901Z,93.96
2018-01-12T06:52:31.417Z,93.78
2018-01-12T06:54:58.937Z,93.57
2018-01-12T06:57:26.465Z,93.46
2018-01-12T06:59:53.990Z,93.33
2018-01-12T07:02:21.505Z,93.27
2018-01-12T07:04:49.037Z,93.19
2018-01-12T07:07:16.564Z,93.04
2018-01-12T07:09:44.085Z,92.97
2018-01-12T07:12:11.632Z,92.92
2018-01-12T07:14:39.182Z,92.47
2018-01-12T07:17:06.707Z,92.49
2018-01-12T07:19:34.230Z,92.48
2018-01-12T07:22:13.639Z,92.53
2018-01-12T07:24:41.166Z,92.42
2018-01-12T07:27:08.704Z,92.50
2018-01-12T07:29:36.277Z,92.77
2018-01-12T07:32:03.800Z,93.59
2018-01-12T07:34:31.358Z,92.94
2018-01-12T07:36:58.923Z,92.28
2018-01-12T07:39:26.445Z,92.10
2018-01-12T07:41:53.974Z,91.92
2018-01-12T07:44:21.501Z,91.77
2018-01-12T07:46:49.035Z,91.67
2018-01-12T07:49:16.556Z,91.74
2018-01-12T07:51:44.117Z,91.54
2018-01-12T07:54:11.670Z,91.57
2018-01-12T07:56:39.192Z,91.50
2018-01-12T07:59:06.708Z,91.55
2018-01-12T08:01:39.889Z,91.78
2018-01-12T08:04:07.414Z,91.53
2018-01-12T08:06:34.939Z,91.49
2018-01-12T08:09:02.460Z,91.35
2018-01-12T08:11:29.991Z,91.31
2018-01-12T08:13:57.549Z,91.16
2018-01-12T08:16:25.073Z,90.94
2018-01-12T08:18:52.590Z,90.69
2018-01-12T08:21:20.161Z,90.71
2018-01-12T08:23:47.680Z,90.78
2018-01-12T08:26:15.282Z,90.53
2018-01-12T08:28:42.815Z,90.53
2018-01-12T08:31:10.404Z,90.74
2018-01-12T08:33:37.926Z,90.43
2018-01-12T08:36:05.453Z,90.16
2018-01-12T08:38:32.975Z,90.35
2018-01-12T08:41:00.528Z,90.37
2018-01-12T08:43:28.052Z,89.93
2018-01-12T08:45:55.579Z,90.01
2018-01-12T08:48:23.215Z,89.83
2018-01-12T08:50:50.746Z,89.86
2018-01-12T08:53:18.264Z,89.93
2018-01-12T08:55:45.800Z,89.66
2018-01-12T08:58:13.322Z,89.96
2018-01-12T09:00:40.915Z,89.84
2018-01-12T09:03:08.433Z,89.61
2018-01-12T09:05:35.961Z,89.53
2018-01-12T09:08:03.477Z,89.45
2018-01-12T09:10:31.088Z,89.33
2018-01-12T09:12:58.590Z,89.38
2018-01-12T09:15:29.077Z,89.38
2018-01-12T09:18:00.419Z,89.40
2018-01-12T09:20:33.810Z,89.50
2018-01-12T09:23:12.214Z,89.47
2018-01-12T09:25:39.737Z,89.70
2018-01-12T09:28:07.319Z,89.74
2018-01-12T09:30:34.842Z,89.59
2018-01-12T09:33:02.405Z,89.57
2018-01-12T09:35:30.003Z,89.52
2018-01-12T09:38:09.298Z,89.51
2018-01-12T09:40:48.145Z,89.32
2018-01-12T09:43:15.672Z,89.31
2018-01-12T09:45:43.388Z,89.40
2018-01-12T09:48:37.677Z,89.71
2018-01-12T09:51:05.200Z,89.50
2018-01-12T09:53:32.788Z,89.68
2018-01-12T09:56:00.364Z,89.27
2018-01-12T09:58:27.882Z,89.55
2018-01-12T10:00:56.298Z,89.39
2018-01-12T10:03:23.818Z,89.40
2018-01-12T10:05:51.361Z,89.34
2018-01-12T10:08:24.806Z,89.30
2018-01-12T10:10:52.329Z,89.66
2018-01-12T10:13:19.850Z,90.14
2018-01-12T10:15:47.368Z,89.45
2018-01-12T10:18:26.709Z,89.34
2018-01-12T10:20:54.230Z,89.23
2018-01-12T10:23:21.755Z,89.19
2018-01-12T10:25:49.270Z,89.23
2018-01-12T10:28:19.484Z,89.39
2018-01-12T10:30:59.644Z,89.40
2018-01-12T10:33:42.724Z,89.14
2018-01-12T10:36:10.245Z,89.11
2018-01-12T10:38:37.772Z,88.98
2018-01-12T10:41:17.974Z,89.16
2018-01-12T10:43:45.493Z,88.92
2018-01-12T10:46:28.744Z,89.08
2018-01-12T10:48:57.195Z,89.05
2018-01-12T10:51:36.797Z,88.96
2018-01-12T10:54:04.322Z,88.98
2018-01-12T10:56:31.837Z,89.15
2018-01-12T10:58:59.465Z,89.04
2018-01-12T11:01:26.991Z,89.13
2018-01-12T11:03:54.517Z,89.15
2018-01-12T11:06:22.144Z,89.17
2018-01-12T11:08:49.700Z,89.04
2018-01-12T11:11:17.220Z,89.32
2018-01-12T11:13:45.744Z,88.87
2018-01-12T11:16:13.301Z,89.07
2018-01-12T11:18:40.836Z,89.22
2018-01-12T11:21:08.356Z,89.24
2018-01-12T11:23:35.872Z,89.22
2018-01-12T11:26:03.400Z,88.97
2018-01-12T11:28:30.919Z,88.83
2018-01-12T11:30:58.461Z,88.65
2018-01-12T11:33:25.980Z,88.76
2018-01-12T11:35:53.500Z,88.63
2018-01-12T11:38:21.022Z,88.50
2018-01-12T11:40:48.554Z,88.39
2018-01-12T11:43:16.081Z,88.60
2018-01-12T11:45:43.719Z,88.65
2018-01-12T11:48:11.279Z,88.87
2018-01-12T11:50:38.798Z,88.84
2018-01-12T11:53:06.407Z,88.64
2018-01-12T11:55:33.924Z,88.40
2018-01-12T11:58:01.467Z,88.36
2018-01-12T12:00:29.008Z,88.55
2018-01-12T12:02:56.536Z,88.56
2018-01-12T12:05:24.052Z,88.42
2018-01-12T12:07:51.583Z,88.84
2018-01-12T12:10:19.102Z,88.97
2018-01-12T12:12:46.661Z,88.87
2018-01-12T12:15:14.231Z,89.00
2018-01-12T12:17:41.781Z,88.69
2018-01-12T12:20:09.305Z,88.58
2018-01-12T12:22:36.845Z,88.41
2018-01-12T12:25:04.468Z,88.51
2018-01-12T12:27:32.001Z,88.68
2018-01-12T12:29:59.532Z,88.80
2018-01-12T12:32:27.120Z,88.66
2018-01-12T12:34:54.725Z,88.58
2018-01-12T12:37:22.246Z,88.70
2018-01-12T12:39:49.761Z,88.99
2018-01-12T12:42:17.291Z,89.05
2018-01-12T12:44:44.865Z,89.10
2018-01-12T12:47:12.386Z,89.06
2018-01-12T12:49:40.076Z,89.11
2018-01-12T12:52:07.595Z,89.62
2018-01-12T12:54:35.148Z,89.53
2018-01-12T12:57:02.739Z,89.81
2018-01-12T12:59:30.261Z,89.68
2018-01-12T13:01:57.773Z,89.73
2018-01-12T13:04:25.301Z,90.07
2018-01-12T13:06:52.891Z,90.11
2018-01-12T13:09:20.451Z,90.22
2018-01-12T13:11:48.007Z,90.42
2018-01-12T13:14:15.585Z,90.09
2018-01-12T13:16:43.106Z,90.23
2018-01-12T13:19:10.634Z,89.98
2018-01-12T13:21:38.166Z,89.92
2018-01-12T13:24:05.686Z,90.16
2018-01-12T13:26:33.208Z,90.10
2018-01-12T13:29:00.824Z,90.02
2018-01-12T13:31:28.341Z,89.92
2018-01-12T13:33:55.869Z,89.98
2018-01-12T13:36:23.380Z,90.12
2018-01-12T13:38:50.966Z,90.19
2018-01-12T13:41:18.496Z,89.91
2018-01-12T13:43:46.021Z,90.03
2018-01-12T13:46:13.596Z,89.62
2018-01-12T13:48:41.106Z,89.52
2018-01-12T13:51:08.666Z,89.75
2018-01-12T13:53:36.213Z,89.88
2018-01-12T13:56:03.755Z,89.97
2018-01-12T13:58:31.285Z,89.75
2018-01-12T14:00:58.808Z,89.75
2018-01-12T14:03:26.335Z,89.82
2018-01-12T14:05:53.879Z,89.80
2018-01-12T14:08:21.401Z,89.61
2018-01-12T14:10:49.065Z,89.60
2018-01-12T14:13:16.598Z,89.70
2018-01-12T14:15:44.224Z,89.89
2018-01-12T14:18:11.822Z,89.79
2018-01-12T14:20:39.336Z,89.88
2018-01-12T14:23:06.866Z,90.04
2018-01-12T14:25:34.402Z,89.72
2018-01-12T14:28:01.931Z,89.73
2018-01-12T14:30:29.451Z,89.73
2018-01-12T14:32:56.968Z,89.81
2018-01-12T14:35:24.492Z,89.75
2018-01-12T14:37:52.022Z,89.96
2018-01-12T14:40:19.541Z,90.14
2018-01-12T14:42:47.112Z,90.07
2018-01-12T14:45:14.640Z,90.12
2018-01-12T14:47:42.237Z,90.14
2018-01-12T14:50:09.791Z,90.09
2018-01-12T14:52:37.351Z,90.08
2018-01-12T14:55:04.932Z,90.05
2018-01-12T14:57:32.567Z,90.06
2018-01-12T15:00:00.091Z,89.96
2018-01-12T15:02:27.634Z,89.79
2018-01-12T15:04:55.213Z,89.91
2018-01-12T15:07:22.712Z,89.90
2018-01-12T15:09:50.233Z,89.99
2018-01-12T15:12:17.760Z,90.52
2018-01-12T15:14:45.290Z,90.60
2018-01-12T15:17:12.813Z,90.35
2018-01-12T15:19:40.365Z,90.25
2018-01-12T15:22:07.907Z,90.27
2018-01-12T15:24:35.536Z,90.54
2018-01-12T15:27:03.049Z,90.38
2018-01-12T15:29:30.654Z,90.15
2018-01-12T15:31:58.171Z,90.22
2018-01-12T15:34:25.729Z,90.12
2018-01-12T15:36:53.258Z,90.30
2018-01-12T15:39:20.894Z,90.33
2018-01-12T15:41:48.776Z,90.39
2018-01-12T15:44:16.321Z,90.67
2018-01-12T15:46:43.850Z,90.89
2018-01-12T15:49:11.369Z,91.10
2018-01-12T15:51:38.891Z,91.04
2018-01-12T15:54:06.413Z,90.95
2018-01-12T15:56:33.944Z,91.12
2018-01-12T15:59:01.473Z,90.92
2018-01-12T16:01:28.995Z,91.11
2018-01-12T16:03:56.558Z,91.24
2018-01-12T16:06:24.114Z,91.14
2018-01-12T16:08:51.705Z,91.25
2018-01-12T16:11:19.249Z,91.54
2018-01-12T16:13:46.774Z,91.83
2018-01-12T16:16:14.361Z,91.73
2018-01-12T16:18:41.918Z,91.63
2018-01-12T16:21:09.525Z,91.43
2018-01-12T16:23:37.090Z,91.44
2018-01-12T16:26:04.633Z,91.38
2018-01-12T16:28:32.164Z,91.75
2018-01-12T16:30:59.744Z,91.70
2018-01-12T16:33:27.261Z,91.48
2018-01-12T16:35:54.778Z,91.33
2018-01-12T16:38:22.320Z,91.29
2018-01-12T16:40:49.852Z,91.09
2018-01-12T16:43:17.422Z,90.89
2018-01-12T16:45:44.952Z,90.92
2018-01-12T16:48:12.574Z,91.24
2018-01-12T16:50:40.104Z,91.34
2018-01-12T16:53:07.626Z,91.23
2018-01-12T16:55:35.147Z,91.48
2018-01-12T16:58:02.676Z,91.55
2018-01-12T17:00:30.202Z,91.28
2018-01-12T17:02:57.821Z,91.11
2018-01-12T17:05:25.341Z,91.24
2018-01-12T17:07:52.878Z,91.19
2018-01-12T17:10:20.616Z,91.11
2018-01-12T17:12:48.133Z,91.14
2018-01-12T17:15:15.675Z,91.28
2018-01-12T17:17:43.217Z,91.12
2018-01-12T17:20:10.761Z,91.15
2018-01-12T17:22:38.286Z,91.08
2018-01-12T17:25:05.875Z,90.88
2018-01-12T17:27:33.410Z,90.78
2018-01-12T17:30:00.964Z,90.66
2018-01-12T17:32:28.571Z,90.60
2018-01-12T17:34:56.098Z,90.52
2018-01-12T17:37:23.625Z,90.27
2018-01-12T17:39:51.162Z,90.06
2018-01-12T17:42:18.792Z,90.18
2018-01-12T17:44:46.330Z,90.10
2018-01-12T17:47:13.853Z,90.25
2018-01-12T17:49:41.370Z,90.20
2018-01-12T17:52:08.905Z,90.05
2018-01-12T17:54:36.420Z,90.07
2018-01-12T17:57:03.949Z,89.78
2018-01-12T17:59:31.487Z,90.00
2018-01-12T18:01:59.068Z,89.97
2018-01-12T18:04:26.597Z,89.86
2018-01-12T18:06:54.142Z,89.76
2018-01-12T18:09:21.758Z,89.59
2018-01-12T18:11:49.306Z,89.65
2018-01-12T18:14:16.863Z,89.54
2018-01-12T18:16:44.487Z,89.55
2018-01-12T18:19:12.105Z,89.64
2018-01-12T18:21:39.635Z,89.54
2018-01-12T18:24:07.160Z,89.29
2018-01-12T18:26:34.776Z,89.45
2018-01-12T18:29:02.314Z,89.39
2018-01-12T18:31:29.999Z,89.10
2018-01-12T18:33:57.541Z,89.12
2018-01-12T18:36:25.077Z,89.37
2018-01-12T18:38:52.638Z,89.27
2018-01-12T18:41:20.400Z,89.08
2018-01-12T18:43:47.944Z,89.40
2018-01-12T18:46:15.472Z,89.45
2018-01-12T18:48:42.997Z,89.50
2018-01-12T18:51:10.528Z,89.38
2018-01-12T18:53:38.060Z,89.29
2018-01-12T18:56:05.573Z,89.23
2018-01-12T18:58:33.107Z,89.31
2018-01-12T19:01:00.637Z,89.55
2018-01-12T19:03:28.169Z,89.30
2018-01-12T19:05:55.798Z,89.39
2018-01-12T19:08:23.324Z,89.40
2018-01-12T19:10:50.962Z,89.24
2018-01-12T19:13:18.500Z,89.24
2018-01-12T19:15:46.017Z,89.31
2018-01-12T19:18:13.633Z,89.55
2018-01-12T19:20:41.213Z,89.63
2018-01-12T19:23:08.765Z,89.80
2018-01-12T19:25:36.297Z,89.91
2018-01-12T19:28:03.847Z,89.75
2018-01-12T19:30:31.437Z,89.94
2018-01-12T19:32:58.962Z,90.10
2018-01-12T19:35:26.599Z,89.99
2018-01-12T19:37:54.489Z,89.91
2018-01-12T19:40:22.018Z,89.95
2018-01-12T19:42:49.645Z,90.33
2018-01-12T19:45:17.208Z,90.30
2018-01-12T19:47:44.746Z,90.16
2018-01-12T19:50:12.289Z,90.49
2018-01-12T19:52:39.831Z,90.49
2018-01-12T19:55:07.449Z,90.20
2018-01-12T19:57:35.217Z,90.52
2018-01-12T20:00:02.768Z,90.81
2018-01-12T20:02:30.287Z,90.86
2018-01-12T20:04:57.958Z,91.28
2018-01-12T20:07:25.703Z,91.39
2018-01-12T20:09:53.377Z,91.49
2018-01-12T20:12:21.054Z,91.24
2018-01-12T20:14:49.239Z,91.25
2018-01-12T20:17:16.787Z,91.41
2018-01-12T20:19:44.413Z,91.61
2018-01-12T20:22:12.028Z,91.51
2018-01-12T20:24:39.562Z,91.21
2018-01-12T20:27:07.090Z,91.40
2018-01-12T20:29:34.654Z,91.10
2018-01-12T20:32:02.181Z,91.16
2018-01-12T20:34:29.710Z,91.23
2018-01-12T20:36:57.234Z,91.05
2018-01-12T20:39:24.777Z,91.46
2018-01-12T20:41:52.341Z,91.42
2018-01-12T20:44:19.867Z,91.01
2018-01-12T20:46:47.598Z,90.93
2018-01-12T20:49:15.122Z,90.63
2018-01-12T20:51:42.776Z,90.45
2018-01-12T20:54:10.317Z,90.50
2018-01-12T20:56:37.836Z,90.92
2018-01-12T20:59:05.418Z,91.13
2018-01-12T21:01:32.963Z,91.30
2018-01-12T21:04:00.548Z,91.22
2018-01-12T21:06:28.250Z,91.35
2018-01-12T21:08:55.806Z,91.40
2018-01-12T21:11:23.354Z,91.40
2018-01-12T21:13:50.882Z,91.23
2018-01-12T21:16:18.506Z,91.42
2018-01-12T21:18:46.218Z,91.41
2018-01-12T21:21:13.747Z,91.26
2018-01-12T21:23:41.347Z,91.17
2018-01-12T21:26:08.865Z,91.21
2018-01-12T21:28:36.406Z,91.13
2018-01-12T21:31:04.055Z,91.18
2018-01-12T21:33:31.685Z,90.91
2018-01-12T21:35:59.226Z,90.51
2018-01-12T21:38:27.723Z,90.29
2018-01-12T21:40:57.441Z,90.10
2018-01-12T21:43:25.010Z,89.76
2018-01-12T21:45:53.594Z,89.76
2018-01-12T21:48:21.141Z,89.81
2018-01-12T21:50:48.730Z,89.82
2018-01-12T21:53:16.240Z,90.01
2018-01-12T21:55:43.820Z,90.05
2018-01-12T21:58:11.357Z,90.02
2018-01-12T22:00:38.967Z,89.88
2018-01-12T22:03:06.797Z,89.87
2018-01-12T22:05:34.370Z,89.79
2018-01-12T22:08:01.979Z,89.86
2018-01-12T22:10:29.511Z,89.82
2018-01-12T22:12:57.136Z,89.71
2018-01-12T22:15:24.666Z,89.99
2018-01-12T22:17:52.195Z,90.16
2018-01-12T22:20:19.740Z,90.17
2018-01-12T22:22:47.264Z,90.21
2018-01-12T22:25:14.811Z,90.24
2018-01-12T22:27:42.523Z,90.18
2018-01-12T22:30:10.045Z,90.24
2018-01-12T22:32:37.621Z,90.10
2018-01-12T22:35:05.198Z,89.91
2018-01-12T22:37:32.786Z,89.75
2018-01-12T22:40:00.308Z,89.44
2018-01-12T22:42:27.851Z,89.02
2018-01-12T22:44:55.400Z,89.04
2018-01-12T22:47:22.968Z,88.99
2018-01-12T22:49:50.533Z,89.11
2018-01-12T22:52:18.136Z,89.07
2018-01-12T22:54:45.690Z,89.25
2018-01-12T22:57:13.255Z,89.41
2018-01-12T22:59:40.788Z,89.16
2018-01-12T23:02:08.340Z,89.25
2018-01-12T23:04:35.874Z,89.37
2018-01-12T23:07:03.574Z,89.22
2018-01-12T23:09:31.852Z,89.05
2018-01-12T23:11:59.391Z,89.00
2018-01-12T23:14:26.922Z,88.64
2018-01-12T23:16:54.453Z,88.76
2018-01-12T23:19:22.189Z,88.89
2018-01-12T23:21:49.761Z,88.76
2018-01-12T23:24:17.411Z,88.63
2018-01-12T23:26:44.936Z,88.62
2018-01-12T23:29:12.530Z,88.71
2018-01-12T23:31:40.139Z,88.74
2018-01-12T23:34:07.740Z,88.79
2018-01-12T23:36:35.281Z,88.63
2018-01-12T23:39:02.885Z,88.70
2018-01-12T23:41:30.482Z,88.92
2018-01-12T23:43:58.090Z,88.94
2018-01-12T23:46:25.709Z,88.78
2018-01-12T23:48:53.252Z,88.92
2018-01-12T23:51:20.889Z,88.72
2018-01-12T23:53:48.449Z,88.78
2018-01-12T23:56:15.997Z,88.62
2018-01-12T23:58:43.528Z,88.78
